Ana Sayfa
METAR-TAF:

METAR-TAF

Havaalanları :

Gage, Oklahoma, Amerika Birleşik Devletleri

Enlem: 36-17-48N, Boylam: 099-46-08W, yükseklik: 677 m

Güncel hava durumu gözlemi

Rapor saat 11:53 UTC de 33 dakika önce yapıldı.
Rüzgar güneydan 13 kt
Sıcaklık 23°C
Nem 73%
Basınç 1009 hPa
Görüş mesafesi: 16.1 km
Açık gökyüzü

METAR: KGAG 161153Z AUTO 17013KT 10SM CLR 23/18 A2980 RMK AO2 SLP060 T02280183 10261 20228 50000

Saat: 07:26 (12:26 UTC)


TAF: eksik

4.000'den fazla havaalanı için hava durumu gözlemleri ve tahminleri (METAR ve TAF raporları).

Kullanılabilir istasyonlar harita üzerinde sarı ve kırmızı noktalarla gösterilir.

İstasyonun adını görmek için fareyi noktanın üzerinde gezdirin.

Sonrasında hava gözlem ve tahminlerini görmek için tıklayın.

Haritayı değiştirmek için: yaklaştırmak için siyah artı işaretli yeşil düğmeye ve uzaklaştırmak için de eksi işaretli düğmeye hızla tıklayın; bitişik haritalar için yeşil okları kullanın.


METAR-TAF: